sensor_id;sensor_type;location;lat;lon;timestamp;P1;durP1;ratioP1;P2;durP2;ratioP2
59978;SDS011;45839;44.882;20.650;2022-08-06T00:02:07;8.90;;;5.50;;
59978;SDS011;45839;44.882;20.650;2022-08-06T00:04:33;8.50;;;5.10;;
59978;SDS011;45839;44.882;20.650;2022-08-06T00:06:59;8.43;;;5.20;;
59978;SDS011;45839;44.882;20.650;2022-08-06T00:09:25;8.77;;;5.28;;
59978;SDS011;45839;44.882;20.650;2022-08-06T00:11:58;15.02;;;5.22;;
59978;SDS011;45839;44.882;20.650;2022-08-06T00:14:28;8.70;;;5.18;;
59978;SDS011;45839;44.882;20.650;2022-08-06T00:16:55;9.23;;;5.32;;
59978;SDS011;45839;44.882;20.650;2022-08-06T00:19:21;10.68;;;5.88;;
59978;SDS011;45839;44.882;20.650;2022-08-06T00:21:47;7.70;;;5.05;;
59978;SDS011;45839;44.882;20.650;2022-08-06T00:24:13;8.10;;;5.13;;
59978;SDS011;45839;44.882;20.650;2022-08-06T00:26:40;8.35;;;4.53;;
59978;SDS011;45839;44.882;20.650;2022-08-06T00:29:06;9.32;;;4.95;;
59978;SDS011;45839;44.882;20.650;2022-08-06T00:31:32;8.75;;;5.40;;
59978;SDS011;45839;44.882;20.650;2022-08-06T00:33:59;8.52;;;5.15;;
59978;SDS011;45839;44.882;20.650;2022-08-06T00:36:27;9.05;;;5.07;;
59978;SDS011;45839;44.882;20.650;2022-08-06T00:38:53;8.60;;;4.70;;
59978;SDS011;45839;44.882;20.650;2022-08-06T00:41:20;8.55;;;5.38;;
59978;SDS011;45839;44.882;20.650;2022-08-06T00:43:46;8.15;;;4.60;;
59978;SDS011;45839;44.882;20.650;2022-08-06T00:46:13;8.45;;;5.43;;
59978;SDS011;45839;44.882;20.650;2022-08-06T00:48:39;9.85;;;4.75;;
59978;SDS011;45839;44.882;20.650;2022-08-06T00:51:05;8.55;;;4.97;;
59978;SDS011;45839;44.882;20.650;2022-08-06T00:53:31;10.15;;;4.97;;
59978;SDS011;45839;44.882;20.650;2022-08-06T00:55:57;9.52;;;4.88;;
59978;SDS011;45839;44.882;20.650;2022-08-06T00:58:23;8.95;;;5.13;;
59978;SDS011;45839;44.882;20.650;2022-08-06T01:00:49;9.63;;;4.90;;
59978;SDS011;45839;44.882;20.650;2022-08-06T01:03:15;8.98;;;5.07;;
59978;SDS011;45839;44.882;20.650;2022-08-06T01:05:42;10.88;;;5.53;;
59978;SDS011;45839;44.882;20.650;2022-08-06T01:08:09;10.35;;;5.30;;
59978;SDS011;45839;44.882;20.650;2022-08-06T01:10:35;10.43;;;5.55;;
59978;SDS011;45839;44.882;20.650;2022-08-06T01:13:01;8.75;;;5.25;;
59978;SDS011;45839;44.882;20.650;2022-08-06T01:15:27;9.25;;;5.22;;
59978;SDS011;45839;44.882;20.650;2022-08-06T01:18:27;9.60;;;5.32;;
59978;SDS011;45839;44.882;20.650;2022-08-06T01:28:28;8.73;;;5.05;;
59978;SDS011;45839;44.882;20.650;2022-08-06T01:31:07;8.33;;;5.30;;
59978;SDS011;45839;44.882;20.650;2022-08-06T01:36:05;10.10;;;5.40;;
59978;SDS011;45839;44.882;20.650;2022-08-06T01:38:34;7.75;;;5.00;;
59978;SDS011;45839;44.882;20.650;2022-08-06T01:41:02;9.20;;;5.20;;
59978;SDS011;45839;44.882;20.650;2022-08-06T01:43:29;8.77;;;4.82;;
59978;SDS011;45839;44.882;20.650;2022-08-06T01:45:57;7.70;;;5.07;;
59978;SDS011;45839;44.882;20.650;2022-08-06T01:48:24;8.43;;;5.15;;
59978;SDS011;45839;44.882;20.650;2022-08-06T01:50:50;9.50;;;5.35;;
59978;SDS011;45839;44.882;20.650;2022-08-06T01:53:36;8.13;;;5.35;;
59978;SDS011;45839;44.882;20.650;2022-08-06T01:56:04;9.23;;;5.22;;
59978;SDS011;45839;44.882;20.650;2022-08-06T01:58:39;8.65;;;4.88;;
59978;SDS011;45839;44.882;20.650;2022-08-06T02:01:08;9.43;;;5.50;;
59978;SDS011;45839;44.882;20.650;2022-08-06T02:03:44;10.52;;;5.60;;
59978;SDS011;45839;44.882;20.650;2022-08-06T02:06:12;11.00;;;5.65;;
59978;SDS011;45839;44.882;20.650;2022-08-06T02:08:40;9.98;;;5.25;;
59978;SDS011;45839;44.882;20.650;2022-08-06T02:11:09;10.27;;;5.43;;
59978;SDS011;45839;44.882;20.650;2022-08-06T02:13:35;8.93;;;5.60;;
59978;SDS011;45839;44.882;20.650;2022-08-06T02:16:03;9.45;;;5.22;;
59978;SDS011;45839;44.882;20.650;2022-08-06T02:18:30;8.43;;;5.50;;
59978;SDS011;45839;44.882;20.650;2022-08-06T02:20:57;9.55;;;5.00;;
59978;SDS011;45839;44.882;20.650;2022-08-06T02:23:24;8.18;;;4.78;;
59978;SDS011;45839;44.882;20.650;2022-08-06T02:25:51;9.13;;;4.97;;
59978;SDS011;45839;44.882;20.650;2022-08-06T02:28:19;8.23;;;4.80;;
59978;SDS011;45839;44.882;20.650;2022-08-06T02:30:46;9.32;;;5.20;;
59978;SDS011;45839;44.882;20.650;2022-08-06T02:33:13;7.40;;;4.97;;
59978;SDS011;45839;44.882;20.650;2022-08-06T02:35:42;7.40;;;5.20;;
59978;SDS011;45839;44.882;20.650;2022-08-06T02:38:14;9.15;;;5.45;;
59978;SDS011;45839;44.882;20.650;2022-08-06T02:40:44;9.30;;;5.03;;
59978;SDS011;45839;44.882;20.650;2022-08-06T02:43:12;7.88;;;5.03;;
59978;SDS011;45839;44.882;20.650;2022-08-06T02:45:41;9.82;;;5.50;;
59978;SDS011;45839;44.882;20.650;2022-08-06T02:50:41;8.93;;;5.63;;
59978;SDS011;45839;44.882;20.650;2022-08-06T02:53:10;8.30;;;5.30;;
59978;SDS011;45839;44.882;20.650;2022-08-06T02:55:37;8.20;;;5.55;;
59978;SDS011;45839;44.882;20.650;2022-08-06T02:58:07;9.55;;;5.70;;
59978;SDS011;45839;44.882;20.650;2022-08-06T03:00:35;9.18;;;5.93;;
59978;SDS011;45839;44.882;20.650;2022-08-06T03:03:02;8.80;;;6.00;;
59978;SDS011;45839;44.882;20.650;2022-08-06T03:05:29;10.05;;;6.80;;
59978;SDS011;45839;44.882;20.650;2022-08-06T03:07:56;9.60;;;6.75;;
59978;SDS011;45839;44.882;20.650;2022-08-06T03:10:24;9.85;;;6.60;;
59978;SDS011;45839;44.882;20.650;2022-08-06T03:12:51;10.43;;;6.70;;
59978;SDS011;45839;44.882;20.650;2022-08-06T03:15:18;9.13;;;6.90;;
59978;SDS011;45839;44.882;20.650;2022-08-06T03:17:45;10.73;;;7.50;;
59978;SDS011;45839;44.882;20.650;2022-08-06T03:20:12;10.38;;;6.95;;
59978;SDS011;45839;44.882;20.650;2022-08-06T03:22:38;13.70;;;7.03;;
59978;SDS011;45839;44.882;20.650;2022-08-06T03:25:06;11.70;;;6.97;;
59978;SDS011;45839;44.882;20.650;2022-08-06T03:27:33;10.52;;;7.32;;
59978;SDS011;45839;44.882;20.650;2022-08-06T03:29:59;9.80;;;7.05;;
59978;SDS011;45839;44.882;20.650;2022-08-06T03:32:26;9.48;;;7.30;;
59978;SDS011;45839;44.882;20.650;2022-08-06T03:34:53;10.65;;;6.95;;
59978;SDS011;45839;44.882;20.650;2022-08-06T03:37:21;10.85;;;7.57;;
59978;SDS011;45839;44.882;20.650;2022-08-06T03:39:48;9.75;;;7.75;;
59978;SDS011;45839;44.882;20.650;2022-08-06T03:42:15;11.48;;;7.30;;
59978;SDS011;45839;44.882;20.650;2022-08-06T03:44:41;12.60;;;7.15;;
59978;SDS011;45839;44.882;20.650;2022-08-06T03:47:11;11.05;;;7.28;;
59978;SDS011;45839;44.882;20.650;2022-08-06T03:49:48;10.05;;;7.22;;
59978;SDS011;45839;44.882;20.650;2022-08-06T03:52:16;10.95;;;8.15;;
59978;SDS011;45839;44.882;20.650;2022-08-06T03:54:46;10.25;;;7.72;;
59978;SDS011;45839;44.882;20.650;2022-08-06T03:57:14;12.38;;;7.57;;
59978;SDS011;45839;44.882;20.650;2022-08-06T03:59:42;11.93;;;7.55;;
59978;SDS011;45839;44.882;20.650;2022-08-06T04:02:09;10.05;;;6.78;;
59978;SDS011;45839;44.882;20.650;2022-08-06T04:04:35;9.65;;;7.47;;
59978;SDS011;45839;44.882;20.650;2022-08-06T04:07:02;10.27;;;7.57;;
59978;SDS011;45839;44.882;20.650;2022-08-06T04:09:29;12.32;;;7.20;;
59978;SDS011;45839;44.882;20.650;2022-08-06T04:11:56;10.80;;;7.82;;
59978;SDS011;45839;44.882;20.650;2022-08-06T04:14:22;12.65;;;6.88;;
59978;SDS011;45839;44.882;20.650;2022-08-06T04:16:49;9.90;;;6.60;;
59978;SDS011;45839;44.882;20.650;2022-08-06T04:19:15;13.00;;;6.80;;
59978;SDS011;45839;44.882;20.650;2022-08-06T04:21:44;12.35;;;6.78;;
59978;SDS011;45839;44.882;20.650;2022-08-06T04:24:10;11.18;;;6.80;;
59978;SDS011;45839;44.882;20.650;2022-08-06T04:26:37;10.23;;;6.15;;
59978;SDS011;45839;44.882;20.650;2022-08-06T04:29:05;13.07;;;7.00;;
59978;SDS011;45839;44.882;20.650;2022-08-06T04:31:32;9.65;;;6.50;;
59978;SDS011;45839;44.882;20.650;2022-08-06T04:33:58;10.07;;;6.50;;
59978;SDS011;45839;44.882;20.650;2022-08-06T04:36:25;8.85;;;6.60;;
59978;SDS011;45839;44.882;20.650;2022-08-06T04:38:52;9.88;;;6.82;;
59978;SDS011;45839;44.882;20.650;2022-08-06T04:41:18;9.90;;;6.93;;
59978;SDS011;45839;44.882;20.650;2022-08-06T04:43:45;18.02;;;11.27;;
59978;SDS011;45839;44.882;20.650;2022-08-06T04:46:11;16.02;;;13.15;;
59978;SDS011;45839;44.882;20.650;2022-08-06T04:48:38;13.57;;;10.90;;
59978;SDS011;45839;44.882;20.650;2022-08-06T04:51:04;11.80;;;8.45;;
59978;SDS011;45839;44.882;20.650;2022-08-06T04:53:38;12.20;;;7.25;;
59978;SDS011;45839;44.882;20.650;2022-08-06T04:56:05;15.88;;;9.23;;
59978;SDS011;45839;44.882;20.650;2022-08-06T04:58:31;13.02;;;8.25;;
59978;SDS011;45839;44.882;20.650;2022-08-06T05:00:57;12.13;;;8.13;;
59978;SDS011;45839;44.882;20.650;2022-08-06T05:03:23;11.27;;;8.50;;
59978;SDS011;45839;44.882;20.650;2022-08-06T05:08:34;10.13;;;8.00;;
59978;SDS011;45839;44.882;20.650;2022-08-06T05:13:35;13.20;;;7.83;;
59978;SDS011;45839;44.882;20.650;2022-08-06T05:16:03;11.48;;;8.55;;
59978;SDS011;45839;44.882;20.650;2022-08-06T05:18:34;13.88;;;8.75;;
59978;SDS011;45839;44.882;20.650;2022-08-06T05:21:02;10.48;;;7.82;;
59978;SDS011;45839;44.882;20.650;2022-08-06T05:23:40;13.07;;;8.00;;
59978;SDS011;45839;44.882;20.650;2022-08-06T05:26:07;10.73;;;7.80;;
59978;SDS011;45839;44.882;20.650;2022-08-06T05:28:34;14.60;;;8.52;;
59978;SDS011;45839;44.882;20.650;2022-08-06T05:31:00;16.70;;;12.52;;
59978;SDS011;45839;44.882;20.650;2022-08-06T05:35:52;19.77;;;17.20;;
59978;SDS011;45839;44.882;20.650;2022-08-06T05:38:19;15.85;;;13.82;;
59978;SDS011;45839;44.882;20.650;2022-08-06T05:40:45;16.85;;;14.18;;
59978;SDS011;45839;44.882;20.650;2022-08-06T05:43:11;16.67;;;13.18;;
59978;SDS011;45839;44.882;20.650;2022-08-06T05:45:38;15.02;;;10.80;;
59978;SDS011;45839;44.882;20.650;2022-08-06T05:48:05;14.45;;;9.95;;
59978;SDS011;45839;44.882;20.650;2022-08-06T05:50:32;10.43;;;8.38;;
59978;SDS011;45839;44.882;20.650;2022-08-06T05:53:06;11.00;;;8.63;;
59978;SDS011;45839;44.882;20.650;2022-08-06T05:55:38;9.88;;;6.57;;
59978;SDS011;45839;44.882;20.650;2022-08-06T05:58:16;13.30;;;9.30;;
59978;SDS011;45839;44.882;20.650;2022-08-06T06:00:43;12.52;;;8.13;;
59978;SDS011;45839;44.882;20.650;2022-08-06T06:03:12;12.82;;;8.25;;
59978;SDS011;45839;44.882;20.650;2022-08-06T06:05:38;8.88;;;6.70;;
59978;SDS011;45839;44.882;20.650;2022-08-06T06:08:05;7.93;;;5.80;;
59978;SDS011;45839;44.882;20.650;2022-08-06T06:10:33;8.93;;;6.15;;
59978;SDS011;45839;44.882;20.650;2022-08-06T06:13:01;11.82;;;6.00;;
59978;SDS011;45839;44.882;20.650;2022-08-06T06:15:28;9.13;;;6.82;;
59978;SDS011;45839;44.882;20.650;2022-08-06T06:23:32;12.90;;;6.78;;
59978;SDS011;45839;44.882;20.650;2022-08-06T06:28:31;7.50;;;5.53;;
59978;SDS011;45839;44.882;20.650;2022-08-06T06:31:04;8.45;;;5.10;;
59978;SDS011;45839;44.882;20.650;2022-08-06T06:35:59;10.10;;;5.07;;
59978;SDS011;45839;44.882;20.650;2022-08-06T06:43:59;8.57;;;5.20;;
59978;SDS011;45839;44.882;20.650;2022-08-06T06:46:32;7.53;;;5.63;;
59978;SDS011;45839;44.882;20.650;2022-08-06T06:49:01;8.73;;;5.05;;
59978;SDS011;45839;44.882;20.650;2022-08-06T06:51:33;7.20;;;4.97;;
59978;SDS011;45839;44.882;20.650;2022-08-06T06:53:59;10.27;;;4.57;;
59978;SDS011;45839;44.882;20.650;2022-08-06T06:56:26;10.45;;;4.80;;
59978;SDS011;45839;44.882;20.650;2022-08-06T06:59:00;9.70;;;8.60;;
59978;SDS011;45839;44.882;20.650;2022-08-06T07:01:28;10.30;;;6.28;;
59978;SDS011;45839;44.882;20.650;2022-08-06T07:03:57;7.45;;;5.25;;
59978;SDS011;45839;44.882;20.650;2022-08-06T07:06:24;10.65;;;5.70;;
59978;SDS011;45839;44.882;20.650;2022-08-06T07:08:51;7.10;;;5.30;;
59978;SDS011;45839;44.882;20.650;2022-08-06T07:11:19;7.38;;;4.85;;
59978;SDS011;45839;44.882;20.650;2022-08-06T07:13:46;7.68;;;5.00;;
59978;SDS011;45839;44.882;20.650;2022-08-06T07:16:13;9.40;;;5.70;;
59978;SDS011;45839;44.882;20.650;2022-08-06T07:18:41;7.10;;;5.10;;
59978;SDS011;45839;44.882;20.650;2022-08-06T07:21:07;9.55;;;6.50;;
59978;SDS011;45839;44.882;20.650;2022-08-06T07:23:33;9.60;;;4.53;;
59978;SDS011;45839;44.882;20.650;2022-08-06T07:26:00;8.00;;;4.75;;
59978;SDS011;45839;44.882;20.650;2022-08-06T07:28:26;11.52;;;4.57;;
59978;SDS011;45839;44.882;20.650;2022-08-06T07:30:53;9.63;;;4.72;;
59978;SDS011;45839;44.882;20.650;2022-08-06T07:33:19;9.60;;;5.22;;
59978;SDS011;45839;44.882;20.650;2022-08-06T07:35:46;13.70;;;9.93;;
59978;SDS011;45839;44.882;20.650;2022-08-06T07:38:13;12.52;;;5.25;;
59978;SDS011;45839;44.882;20.650;2022-08-06T07:40:42;11.43;;;5.05;;
59978;SDS011;45839;44.882;20.650;2022-08-06T07:43:18;9.73;;;5.28;;
59978;SDS011;45839;44.882;20.650;2022-08-06T07:45:45;9.18;;;4.70;;
59978;SDS011;45839;44.882;20.650;2022-08-06T07:48:12;8.77;;;5.25;;
59978;SDS011;45839;44.882;20.650;2022-08-06T07:50:41;9.77;;;4.70;;
59978;SDS011;45839;44.882;20.650;2022-08-06T07:53:08;7.70;;;3.95;;
59978;SDS011;45839;44.882;20.650;2022-08-06T07:55:35;9.85;;;3.92;;
59978;SDS011;45839;44.882;20.650;2022-08-06T07:58:01;9.50;;;4.68;;
59978;SDS011;45839;44.882;20.650;2022-08-06T08:00:28;6.82;;;4.13;;
59978;SDS011;45839;44.882;20.650;2022-08-06T08:02:55;7.00;;;3.55;;
59978;SDS011;45839;44.882;20.650;2022-08-06T08:05:40;9.27;;;4.60;;
59978;SDS011;45839;44.882;20.650;2022-08-06T08:08:25;9.32;;;4.35;;
59978;SDS011;45839;44.882;20.650;2022-08-06T08:10:52;6.97;;;3.60;;
59978;SDS011;45839;44.882;20.650;2022-08-06T08:13:20;8.52;;;5.50;;
59978;SDS011;45839;44.882;20.650;2022-08-06T08:15:47;6.07;;;3.70;;
59978;SDS011;45839;44.882;20.650;2022-08-06T08:18:14;6.45;;;3.58;;
59978;SDS011;45839;44.882;20.650;2022-08-06T08:20:41;6.82;;;3.75;;
59978;SDS011;45839;44.882;20.650;2022-08-06T08:23:09;8.10;;;3.90;;
59978;SDS011;45839;44.882;20.650;2022-08-06T08:25:37;10.57;;;4.18;;
59978;SDS011;45839;44.882;20.650;2022-08-06T08:28:03;6.68;;;3.42;;
59978;SDS011;45839;44.882;20.650;2022-08-06T08:30:29;7.65;;;3.53;;
59978;SDS011;45839;44.882;20.650;2022-08-06T08:32:56;6.28;;;3.17;;
59978;SDS011;45839;44.882;20.650;2022-08-06T08:35:22;7.00;;;3.53;;
59978;SDS011;45839;44.882;20.650;2022-08-06T08:37:48;7.47;;;3.20;;
59978;SDS011;45839;44.882;20.650;2022-08-06T08:40:14;6.32;;;2.85;;
59978;SDS011;45839;44.882;20.650;2022-08-06T08:42:42;5.95;;;3.00;;
59978;SDS011;45839;44.882;20.650;2022-08-06T08:45:09;5.65;;;2.70;;
59978;SDS011;45839;44.882;20.650;2022-08-06T08:47:37;8.02;;;2.80;;
59978;SDS011;45839;44.882;20.650;2022-08-06T08:50:05;6.43;;;2.42;;
59978;SDS011;45839;44.882;20.650;2022-08-06T08:52:32;6.35;;;2.58;;
59978;SDS011;45839;44.882;20.650;2022-08-06T08:55:00;8.10;;;2.80;;
59978;SDS011;45839;44.882;20.650;2022-08-06T08:57:27;6.85;;;2.67;;
59978;SDS011;45839;44.882;20.650;2022-08-06T08:59:53;6.47;;;2.83;;
59978;SDS011;45839;44.882;20.650;2022-08-06T09:02:20;5.18;;;2.63;;
59978;SDS011;45839;44.882;20.650;2022-08-06T09:04:48;9.38;;;2.90;;
59978;SDS011;45839;44.882;20.650;2022-08-06T09:07:15;8.98;;;2.90;;
59978;SDS011;45839;44.882;20.650;2022-08-06T09:09:41;6.32;;;2.80;;
59978;SDS011;45839;44.882;20.650;2022-08-06T09:12:07;5.93;;;2.60;;
59978;SDS011;45839;44.882;20.650;2022-08-06T09:14:36;6.45;;;2.50;;
59978;SDS011;45839;44.882;20.650;2022-08-06T09:17:04;8.35;;;2.30;;
59978;SDS011;45839;44.882;20.650;2022-08-06T09:19:30;6.30;;;2.55;;
59978;SDS011;45839;44.882;20.650;2022-08-06T09:21:57;6.13;;;2.47;;
59978;SDS011;45839;44.882;20.650;2022-08-06T09:24:24;5.85;;;2.35;;
59978;SDS011;45839;44.882;20.650;2022-08-06T09:27:03;6.15;;;2.55;;
59978;SDS011;45839;44.882;20.650;2022-08-06T09:29:29;8.38;;;2.65;;
59978;SDS011;45839;44.882;20.650;2022-08-06T09:31:56;5.13;;;2.15;;
59978;SDS011;45839;44.882;20.650;2022-08-06T09:34:30;7.18;;;2.35;;
59978;SDS011;45839;44.882;20.650;2022-08-06T09:36:56;7.53;;;2.50;;
59978;SDS011;45839;44.882;20.650;2022-08-06T09:42:02;7.65;;;2.40;;
59978;SDS011;45839;44.882;20.650;2022-08-06T09:44:29;5.53;;;2.50;;
59978;SDS011;45839;44.882;20.650;2022-08-06T09:46:55;6.72;;;2.47;;
59978;SDS011;45839;44.882;20.650;2022-08-06T09:49:23;7.45;;;2.70;;
59978;SDS011;45839;44.882;20.650;2022-08-06T09:51:49;7.88;;;2.75;;
59978;SDS011;45839;44.882;20.650;2022-08-06T09:54:15;5.80;;;2.33;;
59978;SDS011;45839;44.882;20.650;2022-08-06T09:56:42;6.13;;;2.63;;
59978;SDS011;45839;44.882;20.650;2022-08-06T09:59:08;7.85;;;2.75;;
59978;SDS011;45839;44.882;20.650;2022-08-06T10:01:41;5.93;;;2.92;;
59978;SDS011;45839;44.882;20.650;2022-08-06T10:04:11;10.23;;;5.60;;
59978;SDS011;45839;44.882;20.650;2022-08-06T10:06:57;7.68;;;3.03;;
59978;SDS011;45839;44.882;20.650;2022-08-06T10:09:24;10.30;;;3.35;;
59978;SDS011;45839;44.882;20.650;2022-08-06T10:11:50;6.95;;;2.13;;
59978;SDS011;45839;44.882;20.650;2022-08-06T10:14:20;6.75;;;2.60;;
59978;SDS011;45839;44.882;20.650;2022-08-06T10:17:03;8.07;;;2.95;;
59978;SDS011;45839;44.882;20.650;2022-08-06T10:19:29;5.53;;;2.97;;
59978;SDS011;45839;44.882;20.650;2022-08-06T10:21:55;6.13;;;2.28;;
59978;SDS011;45839;44.882;20.650;2022-08-06T10:26:54;7.05;;;3.08;;
59978;SDS011;45839;44.882;20.650;2022-08-06T10:29:21;4.72;;;2.33;;
59978;SDS011;45839;44.882;20.650;2022-08-06T10:31:48;6.45;;;2.33;;
59978;SDS011;45839;44.882;20.650;2022-08-06T10:34:20;4.35;;;2.28;;
59978;SDS011;45839;44.882;20.650;2022-08-06T10:37:04;5.13;;;2.13;;
59978;SDS011;45839;44.882;20.650;2022-08-06T10:39:33;7.55;;;2.53;;
59978;SDS011;45839;44.882;20.650;2022-08-06T10:42:02;5.00;;;2.13;;
59978;SDS011;45839;44.882;20.650;2022-08-06T10:44:28;6.40;;;2.53;;
59978;SDS011;45839;44.882;20.650;2022-08-06T10:46:55;3.85;;;2.00;;
59978;SDS011;45839;44.882;20.650;2022-08-06T10:49:21;5.55;;;1.90;;
59978;SDS011;45839;44.882;20.650;2022-08-06T10:51:48;6.18;;;2.03;;
59978;SDS011;45839;44.882;20.650;2022-08-06T10:54:17;6.75;;;1.80;;
59978;SDS011;45839;44.882;20.650;2022-08-06T10:56:45;4.95;;;2.30;;
59978;SDS011;45839;44.882;20.650;2022-08-06T10:59:14;4.93;;;2.28;;
59978;SDS011;45839;44.882;20.650;2022-08-06T11:06:56;5.47;;;2.40;;
59978;SDS011;45839;44.882;20.650;2022-08-06T11:12:03;3.38;;;2.17;;
59978;SDS011;45839;44.882;20.650;2022-08-06T11:14:33;5.65;;;2.40;;
59978;SDS011;45839;44.882;20.650;2022-08-06T11:16:59;6.53;;;2.95;;
59978;SDS011;45839;44.882;20.650;2022-08-06T11:22:04;6.60;;;2.28;;
59978;SDS011;45839;44.882;20.650;2022-08-06T11:24:30;4.20;;;2.20;;
59978;SDS011;45839;44.882;20.650;2022-08-06T11:26:56;4.30;;;2.08;;
59978;SDS011;45839;44.882;20.650;2022-08-06T11:29:23;5.35;;;2.47;;
59978;SDS011;45839;44.882;20.650;2022-08-06T11:31:49;5.72;;;2.30;;
59978;SDS011;45839;44.882;20.650;2022-08-06T11:34:19;5.57;;;2.50;;
59978;SDS011;45839;44.882;20.650;2022-08-06T11:37:03;7.40;;;3.60;;
59978;SDS011;45839;44.882;20.650;2022-08-06T11:39:29;6.63;;;2.95;;
59978;SDS011;45839;44.882;20.650;2022-08-06T11:41:59;4.78;;;2.40;;
59978;SDS011;45839;44.882;20.650;2022-08-06T11:44:30;4.40;;;1.98;;
59978;SDS011;45839;44.882;20.650;2022-08-06T11:47:07;5.75;;;1.88;;
59978;SDS011;45839;44.882;20.650;2022-08-06T11:49:34;4.90;;;1.92;;
59978;SDS011;45839;44.882;20.650;2022-08-06T11:52:01;3.65;;;1.85;;
59978;SDS011;45839;44.882;20.650;2022-08-06T11:59:37;3.55;;;1.73;;
59978;SDS011;45839;44.882;20.650;2022-08-06T12:02:09;3.10;;;2.00;;
59978;SDS011;45839;44.882;20.650;2022-08-06T12:09:41;4.38;;;1.55;;
59978;SDS011;45839;44.882;20.650;2022-08-06T12:14:53;3.90;;;1.80;;
59978;SDS011;45839;44.882;20.650;2022-08-06T12:17:19;3.63;;;1.30;;
59978;SDS011;45839;44.882;20.650;2022-08-06T12:19:47;4.70;;;2.42;;
59978;SDS011;45839;44.882;20.650;2022-08-06T12:22:13;5.05;;;1.92;;
59978;SDS011;45839;44.882;20.650;2022-08-06T12:24:44;5.30;;;2.22;;
59978;SDS011;45839;44.882;20.650;2022-08-06T12:27:11;2.53;;;1.38;;
59978;SDS011;45839;44.882;20.650;2022-08-06T12:29:37;5.25;;;1.73;;
59978;SDS011;45839;44.882;20.650;2022-08-06T12:34:48;3.65;;;1.60;;
59978;SDS011;45839;44.882;20.650;2022-08-06T12:37:15;4.80;;;1.77;;
59978;SDS011;45839;44.882;20.650;2022-08-06T12:39:41;3.60;;;1.80;;
59978;SDS011;45839;44.882;20.650;2022-08-06T12:42:26;2.42;;;1.20;;
59978;SDS011;45839;44.882;20.650;2022-08-06T12:44:52;2.42;;;1.50;;
59978;SDS011;45839;44.882;20.650;2022-08-06T12:47:19;2.38;;;1.50;;
59978;SDS011;45839;44.882;20.650;2022-08-06T12:49:45;6.47;;;2.85;;
59978;SDS011;45839;44.882;20.650;2022-08-06T12:52:15;3.55;;;1.67;;
59978;SDS011;45839;44.882;20.650;2022-08-06T12:54:48;5.13;;;1.80;;
59978;SDS011;45839;44.882;20.650;2022-08-06T12:57:21;6.25;;;1.80;;
59978;SDS011;45839;44.882;20.650;2022-08-06T12:59:48;2.03;;;1.50;;
59978;SDS011;45839;44.882;20.650;2022-08-06T13:02:14;3.25;;;1.70;;
59978;SDS011;45839;44.882;20.650;2022-08-06T13:04:42;2.40;;;1.45;;
59978;SDS011;45839;44.882;20.650;2022-08-06T13:07:09;3.00;;;1.45;;
59978;SDS011;45839;44.882;20.650;2022-08-06T13:09:35;3.55;;;1.38;;
59978;SDS011;45839;44.882;20.650;2022-08-06T13:12:18;3.38;;;1.58;;
59978;SDS011;45839;44.882;20.650;2022-08-06T13:14:49;2.58;;;1.38;;
59978;SDS011;45839;44.882;20.650;2022-08-06T13:17:17;3.60;;;1.60;;
59978;SDS011;45839;44.882;20.650;2022-08-06T13:19:50;2.78;;;1.40;;
59978;SDS011;45839;44.882;20.650;2022-08-06T13:22:16;3.47;;;1.10;;
59978;SDS011;45839;44.882;20.650;2022-08-06T13:24:43;3.20;;;1.30;;
59978;SDS011;45839;44.882;20.650;2022-08-06T13:27:09;2.65;;;1.70;;
59978;SDS011;45839;44.882;20.650;2022-08-06T13:29:35;2.95;;;1.55;;
59978;SDS011;45839;44.882;20.650;2022-08-06T13:32:03;3.53;;;1.30;;
59978;SDS011;45839;44.882;20.650;2022-08-06T13:34:29;2.08;;;1.20;;
59978;SDS011;45839;44.882;20.650;2022-08-06T13:37:09;2.08;;;1.10;;
59978;SDS011;45839;44.882;20.650;2022-08-06T13:39:35;2.92;;;1.33;;
59978;SDS011;45839;44.882;20.650;2022-08-06T13:42:03;2.90;;;1.63;;
59978;SDS011;45839;44.882;20.650;2022-08-06T13:44:36;1.88;;;1.10;;
59978;SDS011;45839;44.882;20.650;2022-08-06T13:47:06;2.83;;;1.60;;
59978;SDS011;45839;44.882;20.650;2022-08-06T13:49:33;7.03;;;1.20;;
59978;SDS011;45839;44.882;20.650;2022-08-06T13:52:00;3.20;;;1.30;;
59978;SDS011;45839;44.882;20.650;2022-08-06T13:54:26;2.78;;;1.20;;
59978;SDS011;45839;44.882;20.650;2022-08-06T13:56:53;3.75;;;1.60;;
59978;SDS011;45839;44.882;20.650;2022-08-06T13:59:20;2.58;;;1.17;;
59978;SDS011;45839;44.882;20.650;2022-08-06T14:01:47;2.60;;;1.40;;
59978;SDS011;45839;44.882;20.650;2022-08-06T14:04:14;4.38;;;1.30;;
59978;SDS011;45839;44.882;20.650;2022-08-06T14:06:41;2.47;;;1.10;;
59978;SDS011;45839;44.882;20.650;2022-08-06T14:09:07;3.33;;;1.35;;
59978;SDS011;45839;44.882;20.650;2022-08-06T14:11:33;3.17;;;1.10;;
59978;SDS011;45839;44.882;20.650;2022-08-06T14:13:59;3.78;;;1.63;;
59978;SDS011;45839;44.882;20.650;2022-08-06T14:16:25;5.38;;;1.60;;
59978;SDS011;45839;44.882;20.650;2022-08-06T14:18:52;3.15;;;1.73;;
59978;SDS011;45839;44.882;20.650;2022-08-06T14:21:18;5.15;;;2.60;;
59978;SDS011;45839;44.882;20.650;2022-08-06T14:23:44;3.85;;;2.10;;
59978;SDS011;45839;44.882;20.650;2022-08-06T14:26:10;5.30;;;3.25;;
59978;SDS011;45839;44.882;20.650;2022-08-06T14:28:36;5.78;;;3.13;;
59978;SDS011;45839;44.882;20.650;2022-08-06T14:31:03;5.82;;;3.70;;
59978;SDS011;45839;44.882;20.650;2022-08-06T14:33:29;5.65;;;3.33;;
59978;SDS011;45839;44.882;20.650;2022-08-06T14:35:55;4.45;;;2.70;;
59978;SDS011;45839;44.882;20.650;2022-08-06T14:38:21;4.72;;;2.45;;
59978;SDS011;45839;44.882;20.650;2022-08-06T14:40:47;4.78;;;2.58;;
59978;SDS011;45839;44.882;20.650;2022-08-06T14:43:32;4.45;;;2.40;;
59978;SDS011;45839;44.882;20.650;2022-08-06T14:46:17;4.45;;;1.90;;
59978;SDS011;45839;44.882;20.650;2022-08-06T14:48:43;6.45;;;2.72;;
59978;SDS011;45839;44.882;20.650;2022-08-06T14:51:09;5.13;;;2.40;;
59978;SDS011;45839;44.882;20.650;2022-08-06T14:53:35;2.72;;;1.40;;
59978;SDS011;45839;44.882;20.650;2022-08-06T14:56:01;4.15;;;1.80;;
59978;SDS011;45839;44.882;20.650;2022-08-06T14:58:27;4.50;;;1.75;;
59978;SDS011;45839;44.882;20.650;2022-08-06T15:00:53;5.28;;;2.33;;
59978;SDS011;45839;44.882;20.650;2022-08-06T15:03:19;3.30;;;1.67;;
59978;SDS011;45839;44.882;20.650;2022-08-06T15:05:45;3.97;;;1.95;;
59978;SDS011;45839;44.882;20.650;2022-08-06T15:08:11;2.65;;;1.70;;
59978;SDS011;45839;44.882;20.650;2022-08-06T15:10:37;4.65;;;2.00;;
59978;SDS011;45839;44.882;20.650;2022-08-06T15:13:04;5.90;;;3.22;;
59978;SDS011;45839;44.882;20.650;2022-08-06T15:15:32;8.35;;;4.28;;
59978;SDS011;45839;44.882;20.650;2022-08-06T15:17:58;6.65;;;4.80;;
59978;SDS011;45839;44.882;20.650;2022-08-06T15:20:24;5.03;;;3.08;;
59978;SDS011;45839;44.882;20.650;2022-08-06T15:22:50;4.30;;;2.30;;
59978;SDS011;45839;44.882;20.650;2022-08-06T15:25:16;3.05;;;1.38;;
59978;SDS011;45839;44.882;20.650;2022-08-06T15:27:43;2.15;;;1.20;;
59978;SDS011;45839;44.882;20.650;2022-08-06T15:30:10;3.00;;;1.30;;
59978;SDS011;45839;44.882;20.650;2022-08-06T15:32:36;2.88;;;1.30;;
59978;SDS011;45839;44.882;20.650;2022-08-06T15:35:03;2.92;;;1.30;;
59978;SDS011;45839;44.882;20.650;2022-08-06T15:37:29;2.78;;;1.40;;
59978;SDS011;45839;44.882;20.650;2022-08-06T15:39:55;2.67;;;1.30;;
59978;SDS011;45839;44.882;20.650;2022-08-06T15:42:22;2.65;;;1.08;;
59978;SDS011;45839;44.882;20.650;2022-08-06T15:44:49;2.33;;;1.10;;